Orbital elements of COSMOS 970 DEB
| Launched | 20 December 1977 |
| Flight ended | – |
| Launch site | Tyuratam Missile and Space Center, Kazakhstan (Also known as Baikonur Cosmodrome) |
| Owner | Commonwealth of Independent States (former USSR) |
| NORAD ID | 14907 |
| Date fetched |
Epoch osculation |
Inc. [°] |
Ecc. | RA asc node [hr] |
Arg Peri. [°] |
Mean anom [°] |
Mean motion [rev/day] |
Abs. mag |
| Date fetched |
Epoch osculation |
Inc. [°] |
Ecc. | RA asc node [hr] |
Arg Peri. [°] |
Mean anom [°] |
Mean motion [rev/day] |
Abs. mag |
| 2026 May 03 17:57 | 2026 Apr 29 08:45:49 | 66.0259 | 0.00607 | 6.9125 | 103.6989 | 45.9447 | 13.55130 | – |
| 2026 May 02 17:57 | 2026 Apr 29 08:45:49 | 66.0259 | 0.00607 | 6.9125 | 103.6989 | 45.9447 | 13.55130 | – |
| 2026 May 01 17:56 | 2026 Apr 29 08:45:49 | 66.0259 | 0.00607 | 6.9125 | 103.6989 | 45.9447 | 13.55130 | – |
| 2026 Apr 30 17:56 | 2026 Apr 29 08:45:49 | 66.0259 | 0.00607 | 6.9125 | 103.6989 | 45.9447 | 13.55130 | – |
| 2026 Apr 29 17:57 | 2026 Apr 24 10:05:48 | 66.0255 | 0.00608 | 7.6938 | 106.6366 | 45.9447 | 13.55130 | – |
| 2026 Apr 28 17:56 | 2026 Apr 24 10:05:48 | 66.0255 | 0.00608 | 7.6938 | 106.6366 | 45.9447 | 13.55130 | – |
| 2026 Apr 27 17:58 | 2026 Apr 24 10:05:48 | 66.0255 | 0.00608 | 7.6938 | 106.6366 | 45.9447 | 13.55130 | – |
| 2026 Apr 26 17:58 | 2026 Apr 24 10:05:48 | 66.0255 | 0.00608 | 7.6938 | 106.6366 | 45.9447 | 13.55130 | – |
| 2026 Apr 25 17:58 | 2026 Apr 24 10:05:48 | 66.0255 | 0.00608 | 7.6938 | 106.6366 | 45.9447 | 13.55130 | – |
| 2026 Apr 24 17:59 | 2026 Apr 24 10:05:48 | 66.0255 | 0.00608 | 7.6938 | 106.6366 | 45.9447 | 13.55130 | – |
| 2026 Apr 23 17:57 | 2026 Apr 19 01:59:33 | 66.0255 | 0.00610 | 8.5372 | 109.7973 | 45.9447 | 13.55130 | – |
| 2026 Apr 22 17:57 | 2026 Apr 19 01:59:33 | 66.0255 | 0.00610 | 8.5372 | 109.7973 | 45.9447 | 13.55130 | – |
| 2026 Apr 21 17:57 | 2026 Apr 19 01:59:33 | 66.0255 | 0.00610 | 8.5372 | 109.7973 | 45.9447 | 13.55130 | – |
| 2026 Apr 20 17:57 | 2026 Apr 19 01:59:33 | 66.0255 | 0.00610 | 8.5372 | 109.7973 | 45.9447 | 13.55130 | – |
| 2026 Apr 19 17:58 | 2026 Apr 19 01:59:33 | 66.0255 | 0.00610 | 8.5372 | 109.7973 | 45.9447 | 13.55130 | – |
| 2026 Apr 18 17:56 | 2026 Apr 12 20:08:42 | 66.0261 | 0.00612 | 9.5238 | 113.4510 | 45.9447 | 13.55130 | – |
| 2026 Apr 16 17:57 | 2026 Apr 12 20:08:42 | 66.0261 | 0.00612 | 9.5238 | 113.4510 | 45.9447 | 13.55130 | – |
| 2026 Apr 14 17:57 | 2026 Apr 12 20:08:42 | 66.0261 | 0.00612 | 9.5238 | 113.4510 | 45.9447 | 13.55130 | – |
| 2026 Apr 13 17:57 | 2026 Apr 12 20:08:42 | 66.0261 | 0.00612 | 9.5238 | 113.4510 | 45.9447 | 13.55130 | – |
| 2026 Apr 12 17:57 | 2026 Apr 08 07:50:03 | 66.0269 | 0.00615 | 10.2368 | 116.0575 | 45.9447 | 13.55130 | – |
| 2026 Apr 11 17:57 | 2026 Apr 08 07:50:03 | 66.0269 | 0.00615 | 10.2368 | 116.0575 | 45.9447 | 13.55130 | – |
| 2026 Apr 10 17:58 | 2026 Apr 08 07:50:03 | 66.0269 | 0.00615 | 10.2368 | 116.0575 | 45.9447 | 13.55130 | – |
| 2026 Apr 09 18:01 | 2026 Apr 08 07:50:03 | 66.0269 | 0.00615 | 10.2368 | 116.0575 | 45.9447 | 13.55130 | – |
| 2026 Apr 08 17:57 | 2026 Apr 08 07:50:03 | 66.0269 | 0.00615 | 10.2368 | 116.0575 | 45.9447 | 13.55130 | – |
| 2026 Apr 07 17:57 | 2026 Apr 01 12:22:15 | 66.0275 | 0.00619 | 11.3129 | 119.9594 | 45.9447 | 13.55130 | – |
| 2026 Apr 06 17:57 | 2026 Apr 01 12:22:15 | 66.0275 | 0.00619 | 11.3129 | 119.9594 | 45.9447 | 13.55130 | – |